Time;durP1;ratioP1;P1;durP2;ratioP2;P2;SDS_P1;SDS_P2;PMS_P1;PMS_P2;Temp;Humidity;BMP_temperature;BMP_pressure;BME280_temperature;BME280_humidity;BME280_pressure;Samples;Min_cycle;Max_cycle;Signal;HPM_P1;HPM_P2
2023/06/11 00:01:00;;;;;;;;;;;;;;;;;;5015838;28;19936;-92
2023/06/11 00:03:33;;;;;;;;;;;;;;;;;;5019833;28;19928;-93
2023/06/11 00:06:01;;;;;;;;;;;;;;;;;;5032481;28;19936;-93
2023/06/11 00:08:28;;;;;;;;;;;;;;;;;;5029742;28;19915;-93
2023/06/11 00:10:55;;;;;;;;;;;;;;;;;;5039285;28;19929;-93
2023/06/11 00:13:23;;;;;;;;;;;;;;;;;;5034685;28;19921;-93
2023/06/11 00:15:51;;;;;;;;;;;;;;;;;;5036914;28;19913;-92
2023/06/11 00:18:18;;;;;;;;;;;;;;;;;;5039574;28;19932;-93
2023/06/11 00:20:46;;;;;;;;;;;;;;;;;;5036965;28;19913;-92
2023/06/11 00:23:13;;;;;;;;;;;;;;;;;;5035092;28;19926;-94
2023/06/11 00:25:40;;;;;;;;;;;;;;;;;;5037774;28;19931;-93
2023/06/11 00:28:08;;;;;;;;;;;;;;;;;;5021094;28;19918;-93
2023/06/11 00:30:37;;;;;;;;;;;;;;;;;;5047358;28;19920;-92
2023/06/11 00:33:04;;;;;;;;;;;;;;;;;;5025410;28;19929;-92
2023/06/11 00:35:32;;;;;;;;;;;;;;;;;;5017862;28;19910;-92
2023/06/11 00:37:59;;;;;;;;;;;;;;;;;;5028391;28;19914;-93
2023/06/11 00:40:26;;;;;;;;;;;;;;;;;;5011565;28;19925;-92
2023/06/11 00:42:56;;;;;;;;;;;;;;;;;;5025648;28;19926;-93
2023/06/11 00:45:24;;;;;;;;;;;;;;;;;;5006863;28;19932;-93
2023/06/11 00:47:52;;;;;;;;;;;;;;;;;;5031142;28;19914;-93
2023/06/11 00:50:19;;;;;;;;;;;;;;;;;;5031063;28;19930;-92
2023/06/11 00:52:49;;;;;;;;;;;;;;;;;;5025779;28;19913;-92
2023/06/11 00:55:17;;;;;;;;;;;;;;;;;;5047821;28;19923;-92
2023/06/11 00:57:48;;;;;;;;;;;;;;;;;;5018086;28;19924;-93
2023/06/11 01:00:17;;;;;;;;;;;;;;;;;;5036748;28;19909;-93
2023/06/11 01:02:47;;;;;;;;;;;;;;;;;;5040773;28;19933;-92
2023/06/11 01:05:17;;;;;;;;;;;;;;;;;;5035078;28;19925;-92
2023/06/11 01:07:50;;;;;;;;;;;;;;;;;;5041248;28;19914;-93
2023/06/11 01:10:21;;;;;;;;;;;;;;;;;;5037639;28;19918;-93
2023/06/11 01:12:50;;;;;;;;;;;;;;;;;;5028761;28;19930;-93
2023/06/11 01:15:21;;;;;;;;;;;;;;;;;;5022164;28;19940;-93
2023/06/11 01:17:50;;;;;;;;;;;;;;;;;;5043489;28;19924;-94
2023/06/11 01:20:25;;;;;;;;;;;;;;;;;;5018764;28;19913;-92
2023/06/11 01:23:09;;;;;;;;;;;;;;;;;;5012705;28;20314;-93
2023/06/11 01:25:38;;;;;;;;;;;;;;;;;;5031542;28;19926;-93
2023/06/11 01:28:09;;;;;;;;;;;;;;;;;;5044456;28;20287;-93
2023/06/11 01:30:37;;;;;;;;;;;;;;;;;;5039523;28;19926;-93
2023/06/11 01:33:05;;;;;;;;;;;;;;;;;;5027247;28;19932;-93
2023/06/11 01:35:37;;;;;;;;;;;;;;;;;;5023758;28;19913;-93
2023/06/11 01:38:08;;;;;;;;;;;;;;;;;;5033039;28;19936;-93
2023/06/11 01:40:46;;;;;;;;;;;;;;;;;;5030639;28;19913;-92
2023/06/11 01:43:15;;;;;;;;;;;;;;;;;;5036589;28;19913;-92
2023/06/11 01:45:47;;;;;;;;;;;;;;;;;;5007038;28;19921;-91
2023/06/11 01:48:16;;;;;;;;;;;;;;;;;;5029070;28;19914;-91
2023/06/11 01:50:43;;;;;;;;;;;;;;;;;;5034722;28;19921;-91
2023/06/11 01:53:11;;;;;;;;;;;;;;;;;;5035148;28;19925;-93
2023/06/11 01:55:38;;;;;;;;;;;;;;;;;;5035373;28;19936;-93
2023/06/11 01:58:09;;;;;;;;;;;;;;;;;;5019909;28;19952;-92
2023/06/11 02:00:39;;;;;;;;;;;;;;;;;;5034657;28;19914;-92
2023/06/11 02:03:08;;;;;;;;;;;;;;;;;;5024880;28;19929;-92
2023/06/11 02:05:35;;;;;;;;;;;;;;;;;;5041838;28;19935;-92
2023/06/11 02:08:03;;;;;;;;;;;;;;;;;;5034452;28;19937;-93
2023/06/11 02:10:30;;;;;;;;;;;;;;;;;;5041160;28;19925;-93
2023/06/11 02:12:57;;;;;;;;;;;;;;;;;;5010450;28;19926;-92
2023/06/11 02:15:24;;;;;;;;;;;;;;;;;;5014693;28;19909;-93
2023/06/11 02:17:53;;;;;;;;;;;;;;;;;;5041928;28;19929;-93
2023/06/11 02:20:20;;;;;;;;;;;;;;;;;;5033572;28;20164;-92
2023/06/11 02:22:47;;;;;;;;;;;;;;;;;;5033257;28;19932;-92
2023/06/11 02:25:18;;;;;;;;;;;;;;;;;;5034941;28;19925;-91
2023/06/11 02:27:45;;;;;;;;;;;;;;;;;;5033859;28;19932;-93
2023/06/11 02:30:13;;;;;;;;;;;;;;;;;;5033456;28;19929;-93
2023/06/11 02:32:40;;;;;;;;;;;;;;;;;;5033782;28;19909;-91
2023/06/11 02:35:10;;;;;;;;;;;;;;;;;;5020245;28;19920;-93
2023/06/11 02:37:37;;;;;;;;;;;;;;;;;;5050085;28;19938;-92
2023/06/11 02:40:04;;;;;;;;;;;;;;;;;;5024165;28;19925;-92
2023/06/11 02:42:32;;;;;;;;;;;;;;;;;;5034762;28;19929;-92
2023/06/11 02:44:59;;;;;;;;;;;;;;;;;;5018312;28;19914;-92
2023/06/11 02:47:26;;;;;;;;;;;;;;;;;;5043692;28;19929;-92
2023/06/11 02:49:53;;;;;;;;;;;;;;;;;;5029058;28;19920;-92
2023/06/11 02:52:22;;;;;;;;;;;;;;;;;;5012165;28;19929;-92
2023/06/11 02:54:49;;;;;;;;;;;;;;;;;;5028004;28;19932;-92
2023/06/11 02:57:16;;;;;;;;;;;;;;;;;;5028978;28;19913;-93
2023/06/11 02:59:43;;;;;;;;;;;;;;;;;;5034624;28;19910;-93
2023/06/11 03:02:11;;;;;;;;;;;;;;;;;;5047840;28;19926;-93
2023/06/11 03:04:38;;;;;;;;;;;;;;;;;;5033535;28;19914;-93
2023/06/11 03:07:05;;;;;;;;;;;;;;;;;;5034973;28;19930;-93
2023/06/11 03:09:34;;;;;;;;;;;;;;;;;;5010486;28;19932;-93
2023/06/11 03:12:02;;;;;;;;;;;;;;;;;;5032075;28;19913;-93
2023/06/11 03:14:33;;;;;;;;;;;;;;;;;;5028691;28;19928;-93
2023/06/11 03:17:00;;;;;;;;;;;;;;;;;;5041818;28;19925;-93
2023/06/11 03:19:27;;;;;;;;;;;;;;;;;;5035048;28;19956;-94
2023/06/11 03:21:57;;;;;;;;;;;;;;;;;;5026762;28;19922;-93
2023/06/11 03:24:24;;;;;;;;;;;;;;;;;;5019452;28;19913;-93
2023/06/11 03:26:58;;;;;;;;;;;;;;;;;;5036884;28;19926;-92
2023/06/11 03:29:27;;;;;;;;;;;;;;;;;;5019249;28;19930;-94
2023/06/11 03:31:57;;;;;;;;;;;;;;;;;;5018761;28;19925;-92
2023/06/11 03:34:25;;;;;;;;;;;;;;;;;;5011436;28;19913;-92
2023/06/11 03:36:56;;;;;;;;;;;;;;;;;;5018387;28;19933;-94
2023/06/11 03:39:23;;;;;;;;;;;;;;;;;;5062085;22;19925;-79
2023/06/11 03:41:55;;;;;;;;;;;;;;;;;;5028837;28;19929;-79
2023/06/11 03:44:28;;;;;;;;;;;;;;;;;;5024581;28;19929;-79
2023/06/11 03:46:58;;;;;;;;;;;;;;;;;;5045749;28;19944;-80
2023/06/11 03:49:26;;;;;;;;;;;;;;;;;;5014982;28;19929;-80
2023/06/11 03:51:55;;;;;;;;;;;;;;;;;;5041072;28;19925;-80
2023/06/11 03:54:24;;;;;;;;;;;;;;;;;;5027584;28;19925;-80
2023/06/11 03:56:51;;;;;;;;;;;;;;;;;;5043534;28;20343;-80
2023/06/11 03:59:20;;;;;;;;;;;;;;;;;;5041778;28;19929;-80
2023/06/11 04:01:49;;;;;;;;;;;;;;;;;;5022152;28;20302;-79
2023/06/11 04:04:16;;;;;;;;;;;;;;;;;;5021387;28;19951;-79
2023/06/11 04:06:46;;;;;;;;;;;;;;;;;;5031036;28;19930;-80
2023/06/11 04:09:16;;;;;;;;;;;;;;;;;;5029571;28;20302;-80
2023/06/11 04:11:45;;;;;;;;;;;;;;;;;;5017958;28;19936;-80
2023/06/11 04:14:14;;;;;;;;;;;;;;;;;;5042480;28;19948;-80
2023/06/11 04:16:43;;;;;;;;;;;;;;;;;;5032668;28;19925;-80
2023/06/11 04:19:12;;;;;;;;;;;;;;;;;;5034277;28;19929;-80
2023/06/11 04:21:42;;;;;;;;;;;;;;;;;;5046192;28;19925;-80
2023/06/11 04:24:09;;;;;;;;;;;;;;;;;;5032302;28;20392;-80
2023/06/11 04:26:36;;;;;;;;;;;;;;;;;;5016728;28;19925;-80
2023/06/11 04:29:08;;;;;;;;;;;;;;;;;;5042536;28;20275;-80
2023/06/11 04:31:41;;;;;;;;;;;;;;;;;;5035727;28;20379;-80
2023/06/11 04:34:10;;;;;;;;;;;;;;;;;;5027402;28;19932;-80
2023/06/11 04:36:42;;;;;;;;;;;;;;;;;;5041083;28;19932;-80
2023/06/11 04:39:10;;;;;;;;;;;;;;;;;;5019441;28;19929;-80
2023/06/11 04:41:39;;;;;;;;;;;;;;;;;;5036173;28;19925;-80
2023/06/11 04:44:07;;;;;;;;;;;;;;;;;;5044077;28;19925;-80
2023/06/11 04:46:38;;;;;;;;;;;;;;;;;;5033093;28;20410;-80
2023/06/11 04:49:08;;;;;;;;;;;;;;;;;;5045064;28;19932;-80
2023/06/11 04:51:40;;;;;;;;;;;;;;;;;;5036070;28;20183;-80
2023/06/11 04:54:10;;;;;;;;;;;;;;;;;;5032557;28;19940;-80
2023/06/11 04:56:42;;;;;;;;;;;;;;;;;;5028339;28;19947;-80
2023/06/11 04:59:12;;;;;;;;;;;;;;;;;;5039031;28;19925;-80
2023/06/11 05:01:46;;;;;;;;;;;;;;;;;;5027933;28;19933;-80
2023/06/11 05:04:16;;;;;;;;;;;;;;;;;;5027880;28;19925;-80
2023/06/11 05:06:45;;;;;;;;;;;;;;;;;;5020585;28;19948;-80
2023/06/11 05:09:14;;;;;;;;;;;;;;;;;;5038104;28;19943;-80
2023/06/11 05:11:43;;;;;;;;;;;;;;;;;;5028611;28;19929;-79
2023/06/11 05:14:13;;;;;;;;;;;;;;;;;;5051863;28;20386;-79
2023/06/11 05:16:46;;;;;;;;;;;;;;;;;;5048524;28;19928;-79
2023/06/11 05:19:16;;;;;;;;;;;;;;;;;;5018683;28;19929;-79
2023/06/11 05:21:46;;;;;;;;;;;;;;;;;;5047371;28;19932;-80
2023/06/11 05:24:19;;;;;;;;;;;;;;;;;;5033519;28;19932;-79
2023/06/11 05:26:47;;;;;;;;;;;;;;;;;;5052507;28;19925;-80
2023/06/11 05:29:15;;;;;;;;;;;;;;;;;;5041676;28;19933;-80
2023/06/11 05:31:42;;;;;;;;;;;;;;;;;;5035803;28;19932;-80
2023/06/11 05:34:10;;;;;;;;;;;;;;;;;;5022817;28;19925;-79
2023/06/11 05:36:40;;;;;;;;;;;;;;;;;;5024536;28;19925;-79
2023/06/11 05:39:07;;;;;;;;;;;;;;;;;;5050801;28;19925;-80
2023/06/11 05:41:38;;;;;;;;;;;;;;;;;;5026863;28;19925;-80
2023/06/11 05:44:08;;;;;;;;;;;;;;;;;;5045056;28;19932;-80
2023/06/11 05:46:38;;;;;;;;;;;;;;;;;;5050772;28;19929;-80
2023/06/11 05:49:05;;;;;;;;;;;;;;;;;;5018516;28;19940;-80
2023/06/11 05:51:35;;;;;;;;;;;;;;;;;;5034962;28;19929;-80
2023/06/11 05:54:07;;;;;;;;;;;;;;;;;;5027747;28;20509;-80
2023/06/11 05:56:35;;;;;;;;;;;;;;;;;;5036105;28;19929;-80
2023/06/11 05:59:04;;;;;;;;;;;;;;;;;;5044241;28;20395;-81
2023/06/11 06:01:32;;;;;;;;;;;;;;;;;;5036136;28;19929;-82
2023/06/11 06:04:02;;;;;;;;;;;;;;;;;;5056667;28;20375;-82
2023/06/11 06:06:30;;;;;;;;;;;;;;;;;;5040571;28;19925;-81
2023/06/11 06:08:59;;;;;;;;;;;;;;;;;;5059697;28;19925;-81
2023/06/11 06:11:27;;;;;;;;;;;;;;;;;;5029434;28;19925;-81
2023/06/11 06:13:55;;;;;;;;;;;;;;;;;;5055484;28;19932;-81
2023/06/11 06:16:23;;;;;;;;;;;;;;;;;;5030187;28;20426;-82
2023/06/11 06:18:52;;;;;;;;;;;;;;;;;;5028642;28;19932;-80
2023/06/11 06:21:19;;;;;;;;;;;;;;;;;;5040113;28;19931;-80
2023/06/11 06:23:51;;;;;;;;;;;;;;;;;;5039937;28;20311;-80
2023/06/11 06:26:18;;;;;;;;;;;;;;;;;;5030101;28;19925;-80
2023/06/11 06:28:45;;;;;;;;;;;;;;;;;;5026502;28;19928;-80
2023/06/11 06:31:17;;;;;;;;;;;;;;;;;;5053067;28;19925;-80
2023/06/11 06:33:47;;;;;;;;;;;;;;;;;;5036441;28;20414;-80
2023/06/11 06:36:15;;;;;;;;;;;;;;;;;;5027228;28;21206;-80
2023/06/11 06:38:44;;;;;;;;;;;;;;;;;;5034019;28;19924;-80
2023/06/11 06:41:11;;;;;;;;;;;;;;;;;;5051896;28;20409;-80
2023/06/11 06:43:41;;;;;;;;;;;;;;;;;;5037181;28;20322;-80
2023/06/11 06:46:13;;;;;;;;;;;;;;;;;;5046191;28;19925;-80
2023/06/11 06:48:40;;;;;;;;;;;;;;;;;;5034146;28;19936;-80
2023/06/11 06:51:10;;;;;;;;;;;;;;;;;;5051856;28;19932;-81
2023/06/11 06:53:40;;;;;;;;;;;;;;;;;;5044499;28;20157;-80
2023/06/11 06:56:11;;;;;;;;;;;;;;;;;;5036076;28;19929;-80
2023/06/11 06:58:43;;;;;;;;;;;;;;;;;;5033647;28;19925;-80
2023/06/11 07:01:11;;;;;;;;;;;;;;;;;;5044580;28;20421;-80
2023/06/11 07:03:55;;;;;;;;;;;;;;;;;;5044295;28;19925;-80
2023/06/11 07:06:25;;;;;;;;;;;;;;;;;;5044801;28;19932;-80
2023/06/11 07:08:53;;;;;;;;;;;;;;;;;;5033139;28;19932;-80
2023/06/11 07:18:28;;;;;;;;;;;;;;;;;;5045500;28;20394;-81
2023/06/11 07:20:58;;;;;;;;;;;;;;;;;;5028672;28;20299;-81
2023/06/11 07:23:27;;;;;;;;;;;;;;;;;;5035976;28;19929;-83
2023/06/11 07:25:56;;;;;;;;;;;;;;;;;;5053343;28;19925;-82
2023/06/11 07:28:30;;;;;;;;;;;;;;;;;;5036253;28;19932;-83
2023/06/11 07:30:58;;;;;;;;;;;;;;;;;;5037053;28;19932;-82
2023/06/11 07:33:26;;;;;;;;;;;;;;;;;;5051847;28;20363;-83
2023/06/11 07:35:56;;;;;;;;;;;;;;;;;;5033216;28;20024;-83
2023/06/11 07:38:25;;;;;;;;;;;;;;;;;;5031770;28;19929;-83
2023/06/11 07:40:57;;;;;;;;;;;;;;;;;;5033987;28;19932;-83
2023/06/11 07:43:25;;;;;;;;;;;;;;;;;;5034322;28;20677;-83
2023/06/11 07:45:58;;;;;;;;;;;;;;;;;;5027504;28;19926;-83
2023/06/11 07:48:28;;;;;;;;;;;;;;;;;;5028174;28;19925;-83
2023/06/11 07:50:58;;;;;;;;;;;;;;;;;;5032182;28;19929;-83
2023/06/11 07:53:26;;;;;;;;;;;;;;;;;;5046880;28;19925;-82
2023/06/11 07:55:56;;;;;;;;;;;;;;;;;;5028116;28;19932;-83
2023/06/11 07:58:28;;;;;;;;;;;;;;;;;;5043997;28;19924;-83
2023/06/11 08:00:58;;;;;;;;;;;;;;;;;;5035185;28;19925;-82
2023/06/11 08:03:26;;;;;;;;;;;;;;;;;;5045976;28;19940;-82
2023/06/11 08:05:56;;;;;;;;;;;;;;;;;;5045134;28;20315;-82
2023/06/11 08:08:23;;;;;;;;;;;;;;;;;;5026583;28;20306;-82
2023/06/11 08:10:50;;;;;;;;;;;;;;;;;;5033734;28;19924;-82
2023/06/11 08:13:21;;;;;;;;;;;;;;;;;;5032775;28;19943;-80
2023/06/11 08:15:49;;;;;;;;;;;;;;;;;;5050909;28;19925;-80
2023/06/11 08:18:19;;;;;;;;;;;;;;;;;;5047513;28;19932;-80
2023/06/11 08:20:52;;;;;;;;;;;;;;;;;;5057010;28;19936;-80
2023/06/11 08:23:19;;;;;;;;;;;;;;;;;;5057602;28;19925;-80
2023/06/11 08:25:46;;;;;;;;;;;;;;;;;;5056605;28;20295;-80
2023/06/11 08:28:13;;;;;;;;;;;;;;;;;;5040774;28;19936;-80
2023/06/11 08:30:42;;;;;;;;;;;;;;;;;;5052173;28;20429;-80
2023/06/11 08:33:13;;;;;;;;;;;;;;;;;;5038137;28;20446;-80
2023/06/11 08:35:40;;;;;;;;;;;;;;;;;;5050246;28;19925;-80
2023/06/11 08:38:08;;;;;;;;;;;;;;;;;;5035887;28;19936;-83
2023/06/11 08:40:40;;;;;;;;;;;;;;;;;;5040191;28;19925;-81
2023/06/11 08:43:07;;;;;;;;;;;;;;;;;;5057548;28;19925;-83
2023/06/11 08:45:34;;;;;;;;;;;;;;;;;;5038532;28;19926;-82
2023/06/11 08:48:02;;;;;;;;;;;;;;;;;;5022418;28;20394;-82
2023/06/11 08:50:31;;;;;;;;;;;;;;;;;;5029861;28;19932;-81
2023/06/11 08:53:00;;;;;;;;;;;;;;;;;;5032439;28;20398;-82
2023/06/11 08:55:30;;;;;;;;;;;;;;;;;;5035330;28;20417;-82
2023/06/11 08:57:57;;;;;;;;;;;;;;;;;;5033269;28;19925;-82
2023/06/11 09:00:27;;;;;;;;;;;;;;;;;;5047996;28;20296;-82
2023/06/11 09:02:54;;;;;;;;;;;;;;;;;;5050170;28;19929;-82
2023/06/11 09:05:22;;;;;;;;;;;;;;;;;;5050820;28;19928;-81
2023/06/11 09:07:51;;;;;;;;;;;;;;;;;;5049710;28;19933;-80
2023/06/11 09:10:21;;;;;;;;;;;;;;;;;;5038189;28;19929;-81
2023/06/11 09:12:48;;;;;;;;;;;;;;;;;;5038006;28;19929;-80
2023/06/11 09:15:15;;;;;;;;;;;;;;;;;;5052133;28;19925;-81
2023/06/11 09:17:46;;;;;;;;;;;;;;;;;;5050771;28;19925;-81
2023/06/11 09:20:13;;;;;;;;;;;;;;;;;;5051335;28;19929;-82
2023/06/11 09:22:45;;;;;;;;;;;;;;;;;;5046186;28;19933;-82
2023/06/11 09:25:17;;;;;;;;;;;;;;;;;;5056992;28;19925;-82
2023/06/11 09:27:45;;;;;;;;;;;;;;;;;;5045787;28;19929;-82
2023/06/11 09:30:12;;;;;;;;;;;;;;;;;;5040520;28;19931;-82
2023/06/11 09:32:42;;;;;;;;;;;;;;;;;;5036545;28;19925;-82
2023/06/11 09:35:10;;;;;;;;;;;;;;;;;;5041993;28;19925;-83
2023/06/11 09:37:40;;;;;;;;;;;;;;;;;;5055832;28;19947;-82
2023/06/11 09:40:10;;;;;;;;;;;;;;;;;;5039811;28;19933;-82
2023/06/11 09:42:43;;;;;;;;;;;;;;;;;;5047857;28;20318;-82
2023/06/11 09:45:20;;;;;;;;;;;;;;;;;;5057272;28;19928;-81
2023/06/11 09:47:48;;;;;;;;;;;;;;;;;;5043823;28;19932;-81
2023/06/11 09:50:16;;;;;;;;;;;;;;;;;;5035708;28;19936;-81
2023/06/11 09:52:43;;;;;;;;;;;;;;;;;;5028808;28;19929;-81
2023/06/11 09:55:10;;;;;;;;;;;;;;;;;;5020966;28;19925;-81
2023/06/11 09:57:38;;;;;;;;;;;;;;;;;;5037822;28;19936;-80
2023/06/11 10:00:09;;;;;;;;;;;;;;;;;;5040857;28;19944;-80
2023/06/11 10:02:39;;;;;;;;;;;;;;;;;;5047651;28;19931;-81
2023/06/11 10:05:07;;;;;;;;;;;;;;;;;;5036828;28;19925;-82
2023/06/11 10:07:36;;;;;;;;;;;;;;;;;;5037242;28;19925;-81
2023/06/11 10:10:04;;;;;;;;;;;;;;;;;;5055397;28;19936;-82
2023/06/11 10:12:32;;;;;;;;;;;;;;;;;;5032022;28;19933;-83
2023/06/11 10:14:59;;;;;;;;;;;;;;;;;;5033948;28;19925;-82
2023/06/11 10:17:28;;;;;;;;;;;;;;;;;;5034215;28;19925;-82
2023/06/11 10:19:58;;;;;;;;;;;;;;;;;;5036691;28;19933;-82
2023/06/11 10:22:34;;;;;;;;;;;;;;;;;;5060069;28;19929;-82
2023/06/11 10:25:01;;;;;;;;;;;;;;;;;;5056822;28;19924;-81
2023/06/11 10:27:38;;;;;;;;;;;;;;;;;;5055862;28;19931;-81
2023/06/11 10:30:06;;;;;;;;;;;;;;;;;;5039467;28;19924;-81
2023/06/11 10:32:34;;;;;;;;;;;;;;;;;;5038255;28;19925;-82
2023/06/11 10:35:03;;;;;;;;;;;;;;;;;;5052153;28;19929;-81
2023/06/11 10:37:30;;;;;;;;;;;;;;;;;;5040010;28;20326;-82
2023/06/11 10:40:05;;;;;;;;;;;;;;;;;;5055486;28;19924;-83
2023/06/11 10:42:35;;;;;;;;;;;;;;;;;;5051504;28;19925;-82
2023/06/11 10:45:09;;;;;;;;;;;;;;;;;;5036437;28;19925;-81
2023/06/11 10:47:43;;;;;;;;;;;;;;;;;;5048082;28;19925;-80
2023/06/11 10:50:11;;;;;;;;;;;;;;;;;;5035741;28;19925;-80
2023/06/11 10:56:16;;;;;;;;;;;;;;;;;;5051801;28;19940;-82
2023/06/11 10:58:43;;;;;;;;;;;;;;;;;;5050269;28;19929;-82
2023/06/11 11:01:12;;;;;;;;;;;;;;;;;;5027432;28;19935;-82
2023/06/11 11:03:43;;;;;;;;;;;;;;;;;;5051846;28;19925;-82
2023/06/11 11:06:13;;;;;;;;;;;;;;;;;;5034400;28;19928;-82
2023/06/11 11:08:40;;;;;;;;;;;;;;;;;;5035257;28;19929;-82
2023/06/11 11:11:09;;;;;;;;;;;;;;;;;;5031829;28;20313;-82
2023/06/11 11:13:38;;;;;;;;;;;;;;;;;;5057595;28;19932;-82
2023/06/11 11:16:10;;;;;;;;;;;;;;;;;;5041008;28;19925;-82
2023/06/11 11:18:37;;;;;;;;;;;;;;;;;;5055527;28;19944;-81
2023/06/11 11:21:08;;;;;;;;;;;;;;;;;;5059078;28;19928;-81
2023/06/11 11:23:35;;;;;;;;;;;;;;;;;;5045365;28;19948;-80
2023/06/11 11:26:05;;;;;;;;;;;;;;;;;;5020662;28;20407;-81
2023/06/11 11:28:35;;;;;;;;;;;;;;;;;;5025669;28;19936;-81
2023/06/11 11:31:04;;;;;;;;;;;;;;;;;;5047572;28;19951;-80
2023/06/11 11:33:34;;;;;;;;;;;;;;;;;;5028462;28;19925;-80
2023/06/11 11:36:02;;;;;;;;;;;;;;;;;;5052415;28;20386;-82
2023/06/11 11:38:33;;;;;;;;;;;;;;;;;;5046736;28;19929;-82
2023/06/11 11:41:02;;;;;;;;;;;;;;;;;;5047816;28;20338;-82
2023/06/11 11:43:36;;;;;;;;;;;;;;;;;;5049305;28;19948;-82
2023/06/11 11:46:14;;;;;;;;;;;;;;;;;;5033441;28;19936;-82
2023/06/11 11:48:41;;;;;;;;;;;;;;;;;;5030190;28;19928;-82
2023/06/11 11:51:13;;;;;;;;;;;;;;;;;;5036073;28;20302;-83
2023/06/11 11:53:43;;;;;;;;;;;;;;;;;;5045598;28;19929;-83
2023/06/11 11:56:10;;;;;;;;;;;;;;;;;;5032570;28;19933;-82
2023/06/11 11:58:44;;;;;;;;;;;;;;;;;;5041768;28;20303;-83
2023/06/11 12:01:26;;;;;;;;;;;;;;;;;;5039421;28;19932;-83
2023/06/11 12:04:05;;;;;;;;;;;;;;;;;;5062213;28;19932;-83
2023/06/11 12:06:32;;;;;;;;;;;;;;;;;;5051347;28;19928;-81
2023/06/11 12:09:03;;;;;;;;;;;;;;;;;;5052716;28;20297;-83
2023/06/11 12:11:30;;;;;;;;;;;;;;;;;;5060797;28;19948;-81
2023/06/11 12:13:57;;;;;;;;;;;;;;;;;;5051900;28;19929;-81
2023/06/11 12:16:27;;;;;;;;;;;;;;;;;;5057163;28;19925;-82
2023/06/11 12:18:59;;;;;;;;;;;;;;;;;;5055019;28;19928;-83
2023/06/11 12:21:32;;;;;;;;;;;;;;;;;;5055198;28;19925;-81
2023/06/11 12:24:11;;;;;;;;;;;;;;;;;;;;;
2023/06/11 12:26:40;;;;;;;;;;;;;;;;;;5045178;28;19932;-80
2023/06/11 12:29:14;;;;;;;;;;;;;;;;;;5036406;28;19929;-82
2023/06/11 12:31:45;;;;;;;;;;;;;;;;;;5055878;28;19933;-82
2023/06/11 12:34:18;;;;;;;;;;;;;;;;;;5050552;28;19929;-82
2023/06/11 12:36:53;;;;;;;;;;;;;;;;;;5055703;28;19929;-80
2023/06/11 12:39:20;;;;;;;;;;;;;;;;;;5026311;28;19925;-81
2023/06/11 12:41:51;;;;;;;;;;;;;;;;;;5048650;28;20335;-82
2023/06/11 12:44:20;;;;;;;;;;;;;;;;;;5045498;28;20359;-82
2023/06/11 12:46:50;;;;;;;;;;;;;;;;;;5031292;28;20310;-81
2023/06/11 12:49:17;;;;;;;;;;;;;;;;;;5051411;28;20373;-83
2023/06/11 12:51:46;;;;;;;;;;;;;;;;;;5039196;28;19925;-82
2023/06/11 12:54:15;;;;;;;;;;;;;;;;;;5041495;28;19929;-82
2023/06/11 12:56:43;;;;;;;;;;;;;;;;;;5056787;28;20318;-82
2023/06/11 12:59:11;;;;;;;;;;;;;;;;;;5041449;28;19925;-82
2023/06/11 13:01:38;;;;;;;;;;;;;;;;;;5035393;28;19925;-82
2023/06/11 13:04:05;;;;;;;;;;;;;;;;;;5054278;28;19925;-82
2023/06/11 13:06:32;;;;;;;;;;;;;;;;;;5034253;28;19936;-81
2023/06/11 13:08:59;;;;;;;;;;;;;;;;;;5048073;28;19925;-81
2023/06/11 13:11:27;;;;;;;;;;;;;;;;;;5049013;28;19933;-81
2023/06/11 13:13:56;;;;;;;;;;;;;;;;;;5040477;28;19929;-82
2023/06/11 13:16:26;;;;;;;;;;;;;;;;;;5042174;28;19925;-82
2023/06/11 13:18:53;;;;;;;;;;;;;;;;;;5043081;28;19932;-82
2023/06/11 13:21:25;;;;;;;;;;;;;;;;;;5039375;28;19925;-81
2023/06/11 13:23:54;;;;;;;;;;;;;;;;;;5038188;28;19928;-83
2023/06/11 13:26:22;;;;;;;;;;;;;;;;;;5058265;28;19932;-82
2023/06/11 13:28:49;;;;;;;;;;;;;;;;;;5056845;28;19933;-82
2023/06/11 13:31:18;;;;;;;;;;;;;;;;;;5035474;28;19929;-82
2023/06/11 13:33:47;;;;;;;;;;;;;;;;;;5034547;28;19932;-82
2023/06/11 13:36:14;;;;;;;;;;;;;;;;;;5039576;28;19925;-83
2023/06/11 13:38:44;;;;;;;;;;;;;;;;;;5013429;28;19925;-82
2023/06/11 13:41:16;;;;;;;;;;;;;;;;;;5031268;28;19925;-80
2023/06/11 13:43:43;;;;;;;;;;;;;;;;;;5030008;28;20306;-80
2023/06/11 13:46:10;;;;;;;;;;;;;;;;;;5030674;28;19932;-80
2023/06/11 13:48:37;;;;;;;;;;;;;;;;;;5045734;28;20139;-80
2023/06/11 13:51:08;;;;;;;;;;;;;;;;;;5053232;28;19929;-82
2023/06/11 13:53:37;;;;;;;;;;;;;;;;;;5053203;28;19948;-82
2023/06/11 13:56:06;;;;;;;;;;;;;;;;;;5058612;28;19929;-84
2023/06/11 13:58:38;;;;;;;;;;;;;;;;;;5055451;28;19925;-82
2023/06/11 14:01:05;;;;;;;;;;;;;;;;;;5040469;28;20402;-82
2023/06/11 14:03:34;;;;;;;;;;;;;;;;;;5037125;28;19932;-82
2023/06/11 14:06:04;;;;;;;;;;;;;;;;;;5042603;28;19925;-82
2023/06/11 14:08:32;;;;;;;;;;;;;;;;;;5059145;28;19925;-82
2023/06/11 14:10:59;;;;;;;;;;;;;;;;;;5059344;28;19925;-82
2023/06/11 14:13:27;;;;;;;;;;;;;;;;;;5030071;28;19936;-82
2023/06/11 14:15:56;;;;;;;;;;;;;;;;;;5042053;28;19924;-82
2023/06/11 14:18:23;;;;;;;;;;;;;;;;;;5044042;28;19924;-82
2023/06/11 14:20:50;;;;;;;;;;;;;;;;;;5032228;28;20307;-82
2023/06/11 14:23:18;;;;;;;;;;;;;;;;;;5025749;28;19933;-81
2023/06/11 14:25:46;;;;;;;;;;;;;;;;;;5052172;28;19931;-81
2023/06/11 14:28:15;;;;;;;;;;;;;;;;;;5055895;28;20315;-81
2023/06/11 14:30:44;;;;;;;;;;;;;;;;;;5043536;28;19936;-81
2023/06/11 14:33:11;;;;;;;;;;;;;;;;;;5025995;28;19933;-80
2023/06/11 14:35:38;;;;;;;;;;;;;;;;;;5034774;28;19931;-80
2023/06/11 14:38:05;;;;;;;;;;;;;;;;;;5032229;28;19925;-80
2023/06/11 14:40:33;;;;;;;;;;;;;;;;;;5055143;28;20390;-80
2023/06/11 14:43:02;;;;;;;;;;;;;;;;;;5055853;28;19931;-80
2023/06/11 14:45:32;;;;;;;;;;;;;;;;;;5049010;28;19925;-80
2023/06/11 14:48:01;;;;;;;;;;;;;;;;;;5051606;28;19932;-80
2023/06/11 14:50:33;;;;;;;;;;;;;;;;;;5034197;28;20397;-80
2023/06/11 14:53:00;;;;;;;;;;;;;;;;;;5054163;28;19932;-80
2023/06/11 14:55:27;;;;;;;;;;;;;;;;;;5030985;28;19929;-80
2023/06/11 14:57:54;;;;;;;;;;;;;;;;;;5030779;28;19925;-80
2023/06/11 15:00:23;;;;;;;;;;;;;;;;;;5050599;28;19925;-80
2023/06/11 15:02:50;;;;;;;;;;;;;;;;;;5047623;28;20338;-80
2023/06/11 15:05:17;;;;;;;;;;;;;;;;;;5049159;28;19944;-80
2023/06/11 15:07:44;;;;;;;;;;;;;;;;;;5054855;28;19925;-81
2023/06/11 15:10:13;;;;;;;;;;;;;;;;;;5052081;28;20303;-80
2023/06/11 15:12:42;;;;;;;;;;;;;;;;;;5038667;28;19929;-80
2023/06/11 15:15:09;;;;;;;;;;;;;;;;;;5050042;28;19929;-80
2023/06/11 15:17:38;;;;;;;;;;;;;;;;;;5049693;28;19924;-80
2023/06/11 15:20:05;;;;;;;;;;;;;;;;;;5045635;28;19925;-80
2023/06/11 15:22:34;;;;;;;;;;;;;;;;;;5045466;28;19936;-80
2023/06/11 15:25:05;;;;;;;;;;;;;;;;;;5055697;28;19925;-81
2023/06/11 15:27:32;;;;;;;;;;;;;;;;;;5047028;28;19929;-81
2023/06/11 15:30:01;;;;;;;;;;;;;;;;;;5032735;28;19932;-81
2023/06/11 15:32:31;;;;;;;;;;;;;;;;;;5051792;28;19924;-80
2023/06/11 15:35:01;;;;;;;;;;;;;;;;;;5036213;28;19955;-81
2023/06/11 15:37:31;;;;;;;;;;;;;;;;;;5035118;28;19934;-81
2023/06/11 15:39:58;;;;;;;;;;;;;;;;;;5055323;28;19932;-81
2023/06/11 15:42:27;;;;;;;;;;;;;;;;;;5059036;28;19925;-82
2023/06/11 15:44:54;;;;;;;;;;;;;;;;;;5049884;28;19925;-82
2023/06/11 15:47:21;;;;;;;;;;;;;;;;;;5061128;28;20387;-81
2023/06/11 15:49:51;;;;;;;;;;;;;;;;;;5039408;28;19935;-81
2023/06/11 16:22:49;;;;;;;;;;;;;;;;;;5096954;22;19938;-93
2023/06/11 16:25:19;;;;;;;;;;;;;;;;;;5060689;28;19935;-93
2023/06/11 16:27:48;;;;;;;;;;;;;;;;;;5068163;28;19933;-94
2023/06/11 16:30:18;;;;;;;;;;;;;;;;;;5053370;28;19925;-94
2023/06/11 16:32:45;;;;;;;;;;;;;;;;;;5066423;28;19928;-94
2023/06/11 16:35:17;;;;;;;;;;;;;;;;;;5066536;28;20389;-94
2023/06/11 16:37:53;;;;;;;;;;;;;;;;;;5061408;28;19932;-94
2023/06/11 16:40:21;;;;;;;;;;;;;;;;;;5065011;28;19936;-96
2023/06/11 16:42:48;;;;;;;;;;;;;;;;;;5071989;28;19935;-93
2023/06/11 16:45:16;;;;;;;;;;;;;;;;;;5068353;28;20302;-93
2023/06/11 16:47:46;;;;;;;;;;;;;;;;;;5070531;28;19931;-94
2023/06/11 16:50:15;;;;;;;;;;;;;;;;;;5070785;28;19929;-94
2023/06/11 16:52:47;;;;;;;;;;;;;;;;;;5054677;28;19925;-95
2023/06/11 16:55:17;;;;;;;;;;;;;;;;;;5051985;28;19931;-93
2023/06/11 16:57:44;;;;;;;;;;;;;;;;;;5072504;28;19931;-94
2023/06/11 17:00:12;;;;;;;;;;;;;;;;;;5047984;28;19928;-94
2023/06/11 17:02:42;;;;;;;;;;;;;;;;;;5077389;28;19925;-94
2023/06/11 17:05:12;;;;;;;;;;;;;;;;;;5071486;28;19913;-93
2023/06/11 17:07:44;;;;;;;;;;;;;;;;;;5075281;28;19925;-94
2023/06/11 17:10:12;;;;;;;;;;;;;;;;;;5063473;28;19948;-94
2023/06/11 17:12:45;;;;;;;;;;;;;;;;;;5065107;28;19925;-94
2023/06/11 17:15:16;;;;;;;;;;;;;;;;;;5058343;28;19947;-94
2023/06/11 17:17:43;;;;;;;;;;;;;;;;;;5059981;28;19925;-93
2023/06/11 17:20:10;;;;;;;;;;;;;;;;;;5070024;28;19991;-94
2023/06/11 17:22:38;;;;;;;;;;;;;;;;;;5072032;28;20236;-95
2023/06/11 17:25:12;;;;;;;;;;;;;;;;;;5073350;28;19927;-95
2023/06/11 17:27:42;;;;;;;;;;;;;;;;;;5072380;28;19932;-94
2023/06/11 17:30:14;;;;;;;;;;;;;;;;;;5076265;28;19935;-94
2023/06/11 17:33:00;;;;;;;;;;;;;;;;;;5061615;28;19931;-79
2023/06/11 17:35:28;;;;;;;;;;;;;;;;;;5048893;28;19925;-80
2023/06/11 17:37:57;;;;;;;;;;;;;;;;;;5045956;28;19937;-80
2023/06/11 17:40:28;;;;;;;;;;;;;;;;;;5032848;28;19925;-80